Time;durP1;ratioP1;P1;durP2;ratioP2;P2;SDS_P1;SDS_P2;PMS_P1;PMS_P2;Temp;Humidity;BMP_temperature;BMP_pressure;BME280_temperature;BME280_humidity;BME280_pressure;Samples;Min_cycle;Max_cycle;Signal;HPM_P1;HPM_P2
2021/01/29 00:00:38;;;;;;;171.05;39.60;;;;;;;5.78;100.00;99851.09;4914727;29;20074;-73
2021/01/29 00:03:06;;;;;;;104.72;35.83;;;;;;;5.54;100.00;99802.16;4917476;29;20036;-73
2021/01/29 00:05:34;;;;;;;124.63;38.92;;;;;;;5.79;100.00;99835.03;4918686;29;20036;-73
2021/01/29 00:08:00;;;;;;;135.38;38.67;;;;;;;5.80;100.00;99812.06;4916032;29;20056;-82
2021/01/29 00:10:25;;;;;;;134.13;38.13;;;;;;;5.76;100.00;99792.16;4914864;29;20127;-73
2021/01/29 00:12:51;;;;;;;147.27;41.00;;;;;;;5.88;100.00;99803.38;4915291;29;20043;-73
2021/01/29 00:15:18;;;;;;;145.25;37.60;;;;;;;5.73;100.00;99760.66;4895192;29;20024;-73
2021/01/29 00:17:43;;;;;;;141.77;39.30;;;;;;;5.92;100.00;99786.19;4914237;29;20039;-73
2021/01/29 00:20:11;;;;;;;138.18;39.67;;;;;;;5.73;100.00;99758.03;4916218;29;20495;-73
2021/01/29 00:22:36;;;;;;;146.18;40.05;;;;;;;5.87;100.00;99776.06;4917526;29;20406;-73
2021/01/29 00:25:07;;;;;;;126.05;39.53;;;;;;;5.84;100.00;99779.00;4916662;29;20031;-73
2021/01/29 00:27:32;;;;;;;143.80;41.72;;;;;;;5.82;100.00;99763.28;4913074;29;22248;-73
2021/01/29 00:29:58;;;;;;;135.52;40.28;;;;;;;5.81;100.00;99756.31;4918263;29;20045;-73
2021/01/29 00:32:23;;;;;;;128.32;39.60;;;;;;;5.79;100.00;99755.63;4914788;29;20037;-73
2021/01/29 00:34:49;;;;;;;150.68;41.35;;;;;;;5.83;100.00;99742.94;4915414;29;20043;-73
2021/01/29 00:37:14;;;;;;;115.00;40.25;;;;;;;5.79;100.00;99738.91;4907841;29;20032;-73
2021/01/29 00:39:40;;;;;;;176.73;43.30;;;;;;;5.82;100.00;99734.16;4915743;29;20054;-73
2021/01/29 00:42:05;;;;;;;156.88;44.33;;;;;;;5.80;100.00;99722.03;4916366;29;20054;-82
2021/01/29 00:44:31;;;;;;;137.30;42.38;;;;;;;5.82;100.00;99718.25;4915409;29;20039;-82
2021/01/29 00:46:56;;;;;;;132.88;41.28;;;;;;;5.87;100.00;99714.34;4901613;29;20037;-73
2021/01/29 00:49:22;;;;;;;141.82;42.72;;;;;;;5.87;100.00;99720.44;4915532;29;20043;-73
2021/01/29 00:51:47;;;;;;;153.35;43.95;;;;;;;5.86;100.00;99712.66;4917832;29;20112;-73
2021/01/29 00:54:13;;;;;;;137.88;42.15;;;;;;;5.91;100.00;99702.44;4915077;29;20056;-82
2021/01/29 00:56:38;;;;;;;179.10;44.95;;;;;;;5.91;100.00;99698.00;4916324;29;20035;-73
2021/01/29 00:59:04;;;;;;;141.98;44.38;;;;;;;5.92;100.00;99688.22;4910186;29;20122;-73
2021/01/29 01:01:29;;;;;;;133.88;43.15;;;;;;;5.88;100.00;99678.94;4915906;29;20028;-73
2021/01/29 01:03:55;;;;;;;131.13;43.03;;;;;;;5.92;100.00;99685.56;4916119;29;20039;-73
2021/01/29 01:06:21;;;;;;;123.78;41.22;;;;;;;5.90;100.00;99679.63;4916593;29;20027;-73
2021/01/29 01:08:46;;;;;;;130.57;43.35;;;;;;;5.87;100.00;99669.31;4914871;29;20055;-73
2021/01/29 01:11:12;;;;;;;109.22;38.65;;;;;;;5.96;100.00;99674.56;4915741;29;22649;-72
2021/01/29 01:13:37;;;;;;;95.63;36.85;;;;;;;6.02;100.00;99667.84;4913718;29;20528;-73
2021/01/29 01:16:03;;;;;;;80.88;34.78;;;;;;;6.09;100.00;99657.47;4916100;29;20040;-73
2021/01/29 01:18:28;;;;;;;105.70;38.22;;;;;;;6.21;100.00;99655.41;4907286;29;20767;-73
2021/01/29 01:20:54;;;;;;;123.40;41.45;;;;;;;6.25;100.00;99644.31;4916726;29;20036;-73
2021/01/29 01:23:19;;;;;;;97.25;37.22;;;;;;;6.32;100.00;99639.25;4916012;29;20040;-73
2021/01/29 01:25:45;;;;;;;129.57;43.20;;;;;;;6.35;100.00;99638.13;4915866;29;20040;-72
2021/01/29 01:28:10;;;;;;;122.47;41.42;;;;;;;6.30;100.00;99635.09;4914024;29;20062;-73
2021/01/29 01:30:38;;;;;;;102.78;39.40;;;;;;;6.31;100.00;99628.81;4915304;29;20040;-83
2021/01/29 01:33:03;;;;;;;96.18;38.58;;;;;;;6.12;100.00;99582.97;4919697;29;20165;-73
2021/01/29 01:35:29;;;;;;;110.68;40.67;;;;;;;6.33;100.00;99611.75;4917797;29;20035;-73
2021/01/29 01:37:54;;;;;;;80.15;36.03;;;;;;;6.24;100.00;99588.84;4914856;29;20042;-73
2021/01/29 01:40:27;;;;;;;87.95;36.80;;;;;;;6.39;100.00;99600.56;4913513;29;20035;-73
2021/01/29 01:42:52;;;;;;;90.75;36.67;;;;;;;6.43;100.00;99601.91;4913430;29;20482;-73
2021/01/29 01:45:27;;;;;;;97.28;38.40;;;;;;;6.41;100.00;99595.09;4916390;29;20038;-73
2021/01/29 01:47:55;;;;;;;103.45;38.85;;;;;;;6.41;100.00;99572.09;4914658;29;20787;-73
2021/01/29 01:50:34;;;;;;;107.40;40.22;;;;;;;6.43;100.00;99564.81;4918590;29;20043;-73
2021/01/29 01:53:04;;;;;;;102.35;39.25;;;;;;;6.45;100.00;99550.56;4899459;29;20044;-73
2021/01/29 01:55:37;;;;;;;87.85;36.35;;;;;;;6.26;100.00;99516.16;4899832;29;20388;-73
2021/01/29 01:58:02;;;;;;;115.90;40.38;;;;;;;6.55;100.00;99553.94;4896151;29;20042;-85
2021/01/29 02:00:28;;;;;;;106.20;40.53;;;;;;;6.59;100.00;99548.16;4917061;29;20024;-86
2021/01/29 02:03:06;;;;;;;104.68;40.35;;;;;;;6.59;100.00;99547.28;4905281;29;20160;-72
2021/01/29 02:05:33;;;;;;;130.63;45.20;;;;;;;6.62;100.00;99533.72;4916544;29;20543;-72
2021/01/29 02:08:04;;;;;;;122.18;44.30;;;;;;;6.69;100.00;99523.31;4915678;29;20160;-84
2021/01/29 02:10:30;;;;;;;133.45;46.72;;;;;;;6.60;100.00;99503.91;4902480;29;20047;-73
2021/01/29 02:12:56;;;;;;;181.48;52.38;;;;;;;6.36;100.00;99452.47;4916436;29;20138;-72
2021/01/29 02:15:24;;;;;;;159.55;49.10;;;;;;;6.65;100.00;99475.09;4896252;29;20036;-86
2021/01/29 02:17:49;;;;;;;129.30;48.78;;;;;;;6.84;100.00;99499.69;4900585;29;20450;-72
2021/01/29 02:20:33;;;;;;;180.57;54.78;;;;;;;6.95;100.00;99490.56;4921895;29;20036;-73
2021/01/29 02:23:17;;;;;;;182.10;55.90;;;;;;;7.00;100.00;99482.97;4909884;29;20035;-72
2021/01/29 02:26:04;;;;;;;185.73;59.53;;;;;;;7.07;100.00;99472.53;4916066;29;20051;-73
2021/01/29 02:29:00;;;;;;;176.63;55.00;;;;;;;7.01;100.00;99448.31;4918377;29;20122;-73
2021/01/29 02:31:50;;;;;;;200.98;60.40;;;;;;;7.17;100.00;99450.16;4919240;29;20325;-86
2021/01/29 02:34:39;;;;;;;196.23;58.10;;;;;;;7.28;100.00;99442.88;4919161;29;20043;-72
2021/01/29 02:37:42;;;;;;;223.80;63.80;;;;;;;7.30;100.00;99431.09;4932089;29;20040;-85
2021/01/29 02:40:26;;;;;;;212.98;61.90;;;;;;;7.38;100.00;99424.13;4917293;29;20039;-72
2021/01/29 02:43:18;;;;;;;243.00;67.63;;;;;;;7.42;100.00;99414.81;4913990;29;20043;-72
2021/01/29 02:45:52;;;;;;;241.73;66.35;;;;;;;7.44;100.00;99403.06;4901952;29;20302;-72
2021/01/29 02:48:17;;;;;;;221.73;65.95;;;;;;;7.53;100.00;99405.69;4918636;29;20051;-72
2021/01/29 02:51:12;;;;;;;223.40;66.72;;;;;;;7.34;100.00;99354.59;4918022;29;20036;-72
2021/01/29 02:53:42;;;;;;;246.23;66.28;;;;;;;7.62;100.00;99380.75;4922785;29;20087;-73
2021/01/29 02:56:10;;;;;;;252.05;66.05;;;;;;;7.70;100.00;99380.75;4910837;29;20078;-72
2021/01/29 02:58:53;;;;;;;212.65;64.43;;;;;;;7.54;100.00;99341.78;4915932;29;20028;-72
2021/01/29 03:01:27;;;;;;;201.25;63.53;;;;;;;7.75;100.00;99359.00;4903892;29;20035;-72
2021/01/29 03:04:03;;;;;;;227.52;65.85;;;;;;;7.77;100.00;99344.53;4910055;29;20383;-72
2021/01/29 03:06:34;;;;;;;203.35;63.83;;;;;;;7.61;100.00;99310.94;4920793;29;20137;-72
2021/01/29 03:09:14;;;;;;;187.23;60.55;;;;;;;7.83;100.00;99332.41;4915543;29;20036;-72
2021/01/29 03:11:57;;;;;;;195.65;61.25;;;;;;;7.86;100.00;99326.75;4916291;29;20163;-72
2021/01/29 03:14:33;;;;;;;178.60;59.55;;;;;;;7.88;100.00;99319.44;4917585;29;20073;-85
2021/01/29 03:17:07;;;;;;;189.35;57.80;;;;;;;7.90;100.00;99306.81;4888699;29;20024;-72
2021/01/29 03:19:35;;;;;;;187.30;59.83;;;;;;;7.92;100.00;99301.31;4913209;29;20485;-72
2021/01/29 03:22:25;;;;;;;130.38;52.50;;;;;;;7.91;100.00;99291.69;4905394;29;20031;-72
2021/01/29 03:24:53;;;;;;;148.77;52.20;;;;;;;7.93;100.00;99287.03;4915909;29;20051;-72
2021/01/29 03:27:24;;;;;;;139.68;50.22;;;;;;;7.73;100.00;99252.97;4904958;29;20296;-72
2021/01/29 03:29:54;;;;;;;124.47;48.15;;;;;;;7.96;100.00;99276.91;4919163;29;20040;-83
2021/01/29 03:32:20;;;;;;;159.88;50.70;;;;;;;7.92;100.00;99272.94;4898600;29;20031;-82
2021/01/29 03:35:34;;;;;;;122.97;45.88;;;;;;;7.99;100.00;99274.91;4914417;29;20476;-72
2021/01/29 03:38:18;;;;;;;123.10;44.65;;;;;;;8.00;100.00;99257.97;4935073;28;20035;-72
2021/01/29 03:40:44;;;;;;;93.47;40.42;;;;;;;7.78;100.00;99217.91;4919615;29;20143;-72
2021/01/29 03:43:25;;;;;;;115.25;42.60;;;;;;;8.03;100.00;99247.78;4901255;29;20087;-72
2021/01/29 03:46:17;;;;;;;134.35;44.42;;;;;;;8.04;100.00;99245.97;4900395;29;20043;-73
2021/01/29 03:48:49;;;;;;;100.50;40.45;;;;;;;7.80;100.00;99203.47;4913082;29;20032;-72
2021/01/29 03:51:22;;;;;;;107.65;40.08;;;;;;;8.04;100.00;99227.38;4917889;29;20094;-72
2021/01/29 03:54:12;;;;;;;97.78;39.13;;;;;;;8.05;100.00;99221.06;4928268;28;20561;-72
2021/01/29 03:57:05;;;;;;;97.43;37.63;;;;;;;8.07;100.00;99213.75;4916172;29;20028;-73
2021/01/29 04:00:09;;;;;;;80.88;35.13;;;;;;;8.10;100.00;99226.66;4928784;29;20023;-73
2021/01/29 04:03:02;;;;;;;91.45;36.65;;;;;;;8.07;100.00;99203.13;4917815;28;20346;-72
2021/01/29 04:05:38;;;;;;;87.18;35.13;;;;;;;8.05;100.00;99207.78;4915723;29;20047;-72
2021/01/29 04:08:08;;;;;;;85.72;34.08;;;;;;;8.04;100.00;99200.81;4899727;29;20107;-72
2021/01/29 04:10:34;;;;;;;91.75;35.17;;;;;;;7.99;100.00;99203.16;4901629;29;20028;-72
2021/01/29 04:13:04;;;;;;;89.88;33.85;;;;;;;7.95;100.00;99203.50;4902573;29;20061;-72
2021/01/29 04:15:46;;;;;;;72.53;31.52;;;;;;;7.97;100.00;99198.03;4911260;29;20842;-72
2021/01/29 04:18:14;;;;;;;83.15;31.48;;;;;;;7.95;100.00;99195.56;4915751;29;21492;-72
2021/01/29 04:20:48;;;;;;;78.78;31.23;;;;;;;7.58;100.00;99136.03;4916813;29;20111;-72
2021/01/29 04:23:29;;;;;;;84.03;30.50;;;;;;;7.80;100.00;99160.97;4917313;29;20032;-81
2021/01/29 04:26:00;;;;;;;83.80;31.42;;;;;;;7.96;100.00;99191.06;4904237;29;20031;-82
2021/01/29 04:28:26;;;;;;;80.50;31.15;;;;;;;7.99;100.00;99187.22;4897448;29;20124;-82
2021/01/29 04:30:53;;;;;;;84.20;31.17;;;;;;;8.01;100.00;99191.34;4918347;29;20558;-72
2021/01/29 04:33:21;;;;;;;78.13;29.88;;;;;;;8.02;100.00;99182.38;4899070;29;20027;-72
2021/01/29 04:35:47;;;;;;;61.13;27.13;;;;;;;8.01;100.00;99180.72;4918259;29;20031;-72
2021/01/29 04:38:13;;;;;;;59.20;25.70;;;;;;;7.99;100.00;99177.44;4901670;29;20608;-73
2021/01/29 04:41:02;;;;;;;64.15;26.70;;;;;;;8.00;100.00;99176.44;4913143;29;20522;-72
2021/01/29 04:44:06;;;;;;;61.20;26.45;;;;;;;7.88;100.00;99161.91;4901074;29;20118;-72
2021/01/29 04:46:50;;;;;;;56.42;24.95;;;;;;;8.01;100.00;99185.22;4916073;29;20114;-83
2021/01/29 04:49:49;;;;;;;37.00;20.45;;;;;;;8.01;100.00;99179.91;4908756;29;20036;-82
2021/01/29 04:52:36;;;;;;;34.15;17.52;;;;;;;8.01;100.00;99171.94;4915413;29;20087;-72
2021/01/29 04:55:30;;;;;;;23.10;14.10;;;;;;;7.99;100.00;99168.63;4916157;29;20034;-73
2021/01/29 04:58:16;;;;;;;22.55;13.13;;;;;;;7.96;100.00;99167.16;4899694;29;20055;-72
2021/01/29 05:01:03;;;;;;;22.15;12.48;;;;;;;7.96;100.00;99167.97;4901198;29;20470;-82
2021/01/29 05:04:03;;;;;;;14.82;9.73;;;;;;;7.94;100.00;99167.34;4917758;29;20036;-81
2021/01/29 05:06:57;;;;;;;18.83;8.85;;;;;;;7.89;100.00;99160.91;4915955;29;20051;-73
2021/01/29 05:10:00;;;;;;;18.52;8.20;;;;;;;7.86;100.00;99156.78;4917822;29;20155;-73
2021/01/29 05:12:53;;;;;;;10.00;6.70;;;;;;;7.81;100.00;99145.84;4917796;29;20123;-72
2021/01/29 05:15:43;;;;;;;11.80;6.43;;;;;;;7.81;100.00;99157.31;4918424;29;20024;-72
2021/01/29 05:18:21;;;;;;;14.63;6.30;;;;;;;7.81;100.00;99151.16;4915055;29;20050;-73
2021/01/29 05:21:29;;;;;;;16.33;6.03;;;;;;;7.78;100.00;99146.22;4916063;29;20040;-72
2021/01/29 05:24:28;;;;;;;11.32;5.10;;;;;;;7.81;100.00;99146.69;4898323;29;20050;-73
2021/01/29 05:27:45;;;;;;;7.97;3.97;;;;;;;7.81;100.00;99154.66;4912740;29;20114;-72
2021/01/29 05:30:45;;;;;;;9.05;3.95;;;;;;;7.81;100.00;99153.81;4915922;29;20036;-72
2021/01/29 05:34:02;;;;;;;11.20;2.95;;;;;;;7.80;100.00;99153.00;4916069;29;20059;-73
2021/01/29 05:37:05;;;;;;;9.57;2.20;;;;;;;7.81;100.00;99159.97;4914864;29;20043;-72
2021/01/29 05:39:36;;;;;;;9.00;1.90;;;;;;;7.82;100.00;99163.44;4913634;29;20036;-72
2021/01/29 05:42:22;;;;;;;11.00;2.00;;;;;;;7.81;100.00;99167.09;4914118;29;20399;-72
2021/01/29 05:44:59;;;;;;;8.80;2.08;;;;;;;7.79;100.00;99163.81;4914185;29;20024;-72
2021/01/29 05:47:31;;;;;;;10.65;1.63;;;;;;;7.81;100.00;99170.59;4914261;29;20035;-72
2021/01/29 05:50:15;;;;;;;11.68;1.85;;;;;;;7.78;100.00;99170.13;4912085;29;20043;-72
2021/01/29 05:53:20;;;;;;;9.82;1.48;;;;;;;7.78;100.00;99173.59;4919691;29;20107;-73
2021/01/29 05:55:57;;;;;;;9.40;2.10;;;;;;;7.78;100.00;99173.59;4917857;29;20679;-80
2021/01/29 05:58:32;;;;;;;11.00;1.95;;;;;;;7.77;100.00;99177.25;4901719;29;20039;-72
2021/01/29 06:01:05;;;;;;;12.25;2.08;;;;;;;7.75;100.00;99175.78;4918427;29;20087;-72
2021/01/29 06:03:55;;;;;;;19.17;2.55;;;;;;;7.78;100.00;99183.41;4917818;29;20039;-72
2021/01/29 06:06:43;;;;;;;15.45;2.40;;;;;;;7.75;100.00;99175.78;4915661;29;20056;-73
2021/01/29 06:09:12;;;;;;;;;;;;;;;7.71;100.00;99177.97;4920215;29;20642;-72
2021/01/29 06:11:45;;;;;;;;;;;;;;;7.72;100.00;99179.63;4915069;29;19922;-73
2021/01/29 06:14:28;;;;;;;13.45;2.33;;;;;;;7.71;100.00;99166.50;4903774;29;20394;-72
2021/01/29 06:17:13;;;;;;;17.48;2.42;;;;;;;7.61;100.00;99143.66;4915419;29;20042;-73
2021/01/29 06:19:57;;;;;;;21.95;3.08;;;;;;;7.70;100.00;99165.69;4900934;29;20027;-73
2021/01/29 06:22:44;;;;;;;14.20;2.53;;;;;;;7.72;100.00;99176.13;4920076;29;20373;-80
2021/01/29 06:25:18;;;;;;;16.33;3.08;;;;;;;7.77;100.00;99166.63;4930076;28;20183;-73
2021/01/29 06:28:07;;;;;;;21.67;3.88;;;;;;;7.80;100.00;99173.44;4917253;29;20678;-81
2021/01/29 06:30:44;;;;;;;14.88;2.95;;;;;;;7.77;100.00;99171.13;4917669;29;20032;-72
2021/01/29 06:33:28;;;;;;;11.95;3.03;;;;;;;7.81;100.00;99173.25;4917271;29;20069;-72
2021/01/29 06:36:12;;;;;;;15.10;3.00;;;;;;;7.85;100.00;99178.22;4921378;29;20468;-73
2021/01/29 06:38:40;;;;;;;19.75;3.00;;;;;;;7.78;100.00;99178.09;4906086;29;20047;-72
2021/01/29 06:41:43;;;;;;;13.48;2.67;;;;;;;7.82;100.00;99187.34;4922455;29;20732;-73
2021/01/29 06:44:31;;;;;;;18.77;2.53;;;;;;;7.69;100.00;99165.84;4920552;29;20039;-72
2021/01/29 06:47:13;;;;;;;9.02;1.88;;;;;;;7.84;100.00;99185.34;4919913;29;20486;-80
2021/01/29 06:50:10;;;;;;;5.88;1.70;;;;;;;7.83;100.00;99175.72;4914850;29;20038;-79
2021/01/29 06:52:54;;;;;;;8.73;1.95;;;;;;;7.84;100.00;99182.69;4923336;29;20086;-73
2021/01/29 06:55:25;;;;;;;10.15;2.78;;;;;;;7.86;100.00;99204.59;4918407;29;20407;-73
2021/01/29 06:58:32;;;;;;;11.10;3.15;;;;;;;7.89;100.00;99206.91;4920233;29;20126;-72
2021/01/29 07:01:07;;;;;;;15.38;5.03;;;;;;;7.91;100.00;99209.34;4920804;29;20040;-73
2021/01/29 07:03:52;;;;;;;26.42;5.15;;;;;;;7.97;100.00;99201.50;4904613;29;20043;-72
2021/01/29 07:06:32;;;;;;;25.58;5.55;;;;;;;7.83;100.00;99178.38;4912736;29;20095;-73
2021/01/29 07:09:07;;;;;;;30.75;5.38;;;;;;;8.03;100.00;99209.78;4919686;29;20047;-73
2021/01/29 07:11:54;;;;;;;23.90;4.65;;;;;;;8.04;100.00;99214.91;4917703;29;20110;-72
2021/01/29 07:14:57;;;;;;;30.17;5.27;;;;;;;8.04;100.00;99212.25;4927380;29;20039;-79
2021/01/29 07:17:22;;;;;;;21.30;4.53;;;;;;;8.06;100.00;99204.13;4926052;29;20036;-83
2021/01/29 07:20:16;;;;;;;22.67;4.47;;;;;;;8.09;100.00;99206.41;4921572;29;20395;-73
2021/01/29 07:23:06;;;;;;;26.42;4.82;;;;;;;8.10;100.00;99211.56;4924228;29;20122;-73
2021/01/29 07:25:41;;;;;;;25.42;5.15;;;;;;;8.08;100.00;99200.28;4919952;29;20486;-73
2021/01/29 07:28:25;;;;;;;28.33;5.20;;;;;;;8.19;100.00;99232.75;4907938;29;20046;-72
2021/01/29 07:30:53;;;;;;;22.25;4.07;;;;;;;8.19;100.00;99228.28;4917430;29;20020;-83
2021/01/29 07:33:35;;;;;;;23.88;4.78;;;;;;;8.02;100.00;99200.97;4901720;29;20028;-73
2021/01/29 07:36:19;;;;;;;25.48;4.32;;;;;;;8.15;100.00;99234.09;4914756;29;20031;-73
2021/01/29 07:39:03;;;;;;;29.40;5.72;;;;;;;8.17;100.00;99248.03;4925659;29;20035;-83
2021/01/29 07:41:33;;;;;;;33.25;6.38;;;;;;;7.43;100.00;99135.13;4932676;29;20118;-73
2021/01/29 07:44:21;;;;;;;31.65;5.95;;;;;;;8.17;100.00;99256.84;4915506;28;20142;-73
2021/01/29 07:46:52;;;;;;;33.97;5.27;;;;;;;8.15;100.00;99263.34;4917877;29;20048;-72
2021/01/29 07:49:33;;;;;;;35.10;5.13;;;;;;;7.94;100.00;99240.88;4926522;29;20501;-73
2021/01/29 07:52:04;;;;;;;31.00;5.85;;;;;;;8.09;100.00;99271.03;4921251;29;20082;-73
2021/01/29 07:54:43;;;;;;;37.05;5.82;;;;;;;8.09;100.00;99279.00;4921597;29;20043;-73
2021/01/29 07:57:13;;;;;;;44.33;6.57;;;;;;;8.06;100.00;99295.28;4921405;29;20036;-83
2021/01/29 07:59:58;;;;;;;40.97;6.35;;;;;;;8.10;100.00;99296.59;4907662;29;20035;-86
2021/01/29 08:02:40;;;;;;;37.45;5.88;;;;;;;7.97;100.00;99283.88;4917423;29;20093;-72
2021/01/29 08:05:22;;;;;;;40.25;6.03;;;;;;;8.11;100.00;99308.03;4915985;29;20046;-73
2021/01/29 08:07:57;;;;;;;43.47;6.50;;;;;;;8.13;100.00;99306.03;4916907;29;20047;-73
2021/01/29 08:10:29;;;;;;;34.60;6.43;;;;;;;8.11;100.00;99303.56;4914602;29;20035;-72
2021/01/29 08:13:01;;;;;;;43.78;6.82;;;;;;;8.01;100.00;99307.44;4933910;29;20043;-73
2021/01/29 08:15:46;;;;;;;66.47;9.00;;;;;;;7.94;100.00;99288.69;4903515;29;20398;-86
2021/01/29 08:18:42;;;;;;;43.80;6.63;;;;;;;8.07;100.00;99323.50;4918562;29;20024;-88
2021/01/29 08:21:32;;;;;;;49.35;6.28;;;;;;;8.05;100.00;99324.69;4912640;29;20446;-72
2021/01/29 08:24:07;;;;;;;41.38;7.68;;;;;;;7.80;100.00;99296.41;4929716;28;20036;-72
2021/01/29 08:26:40;;;;;;;53.78;7.75;;;;;;;7.83;100.00;99297.88;4914792;29;20031;-87
2021/01/29 08:29:14;;;;;;;56.88;7.47;;;;;;;7.66;100.00;99279.38;4884119;29;20312;-73
2021/01/29 08:32:16;;;;;;;64.55;8.23;;;;;;;7.99;100.00;99339.50;4914467;29;20020;-72
2021/01/29 08:35:05;;;;;;;62.80;9.32;;;;;;;7.95;100.00;99344.31;4917896;29;20059;-87
2021/01/29 08:38:26;;;;;;;55.30;8.00;;;;;;;7.89;100.00;99345.00;4915768;29;20062;-87
2021/01/29 08:41:18;;;;;;;59.53;7.97;;;;;;;7.89;100.00;99346.81;4900477;29;20067;-87
2021/01/29 08:44:12;;;;;;;60.10;8.48;;;;;;;7.86;100.00;99344.53;4915209;29;20058;-87
2021/01/29 08:47:02;;;;;;;59.33;8.25;;;;;;;7.88;100.00;99353.13;4913783;29;20537;-72
2021/01/29 08:49:39;;;;;;;48.63;7.40;;;;;;;7.90;100.00;99353.78;4917918;29;20039;-72
2021/01/29 08:52:13;;;;;;;57.13;8.73;;;;;;;7.91;100.00;99347.47;4914648;29;20035;-72
2021/01/29 08:54:48;;;;;;;53.30;7.70;;;;;;;7.96;100.00;99361.09;4916421;29;20046;-72
2021/01/29 08:57:52;;;;;;;54.08;7.78;;;;;;;7.96;100.00;99367.22;4916667;29;20031;-73
2021/01/29 09:00:33;;;;;;;61.10;7.97;;;;;;;7.98;100.00;99369.72;4920886;29;20039;-84
2021/01/29 09:03:09;;;;;;;52.15;8.52;;;;;;;7.97;100.00;99368.88;4918929;29;20028;-85
2021/01/29 09:05:35;;;;;;;51.38;7.03;;;;;;;7.70;100.00;99327.66;4917616;29;20629;-85
2021/01/29 09:08:04;;;;;;;42.00;7.53;;;;;;;7.90;99.51;99359.09;4900007;29;20055;-84
2021/01/29 09:10:56;;;;;;;51.28;7.47;;;;;;;7.95;99.79;99370.88;4917726;29;20035;-85
2021/01/29 09:13:22;;;;;;;54.60;8.65;;;;;;;7.92;99.57;99365.91;4916876;29;20031;-85
2021/01/29 09:16:12;;;;;;;59.65;7.35;;;;;;;7.96;98.83;99375.19;4910190;29;20087;-85
2021/01/29 09:18:42;;;;;;;57.97;7.85;;;;;;;8.00;98.50;99378.34;4914893;29;20079;-72
2021/01/29 09:21:20;;;;;;;50.72;7.03;;;;;;;7.94;97.82;99374.53;4901549;29;20442;-72
2021/01/29 09:23:48;;;;;;;;;;;;;;;8.04;97.99;99387.59;4924883;29;20056;-72
2021/01/29 09:26:18;;;;;;;50.05;7.90;;;;;;;8.03;97.78;99387.78;4900457;29;19919;-72
2021/01/29 09:28:44;;;;;;;45.85;7.47;;;;;;;7.57;97.48;99306.94;4913495;29;20031;-72
2021/01/29 09:31:11;;;;;;;58.30;9.13;;;;;;;8.10;97.64;99404.69;4904343;29;20577;-72
2021/01/29 09:33:53;;;;;;;46.38;7.65;;;;;;;8.09;98.32;99400.38;4915437;29;20039;-72
2021/01/29 09:36:36;;;;;;;48.55;8.20;;;;;;;8.15;97.72;99414.78;4924522;29;20455;-72
2021/01/29 09:39:08;;;;;;;57.72;8.38;;;;;;;7.95;98.56;99376.19;4901104;29;20039;-72
2021/01/29 09:41:57;;;;;;;51.65;8.52;;;;;;;8.23;97.44;99418.25;4921573;29;20028;-72
2021/01/29 09:44:41;;;;;;;53.10;7.25;;;;;;;8.27;97.28;99411.59;4924975;29;20440;-72
2021/01/29 09:47:08;;;;;;;41.17;7.13;;;;;;;8.36;96.34;99425.69;4923259;29;20035;-72
2021/01/29 09:49:34;;;;;;;60.83;7.70;;;;;;;8.35;96.38;99425.84;4901401;29;20134;-73
2021/01/29 09:52:00;;;;;;;58.63;8.40;;;;;;;8.38;96.23;99421.03;4901217;29;20032;-72
2021/01/29 09:54:34;;;;;;;47.33;6.80;;;;;;;8.43;96.22;99426.63;4916240;29;20126;-72
2021/01/29 09:57:05;;;;;;;53.28;7.47;;;;;;;8.47;96.45;99428.94;4913304;29;20308;-72
2021/01/29 09:59:38;;;;;;;42.03;7.07;;;;;;;8.56;95.89;99434.09;4922697;29;20023;-72
2021/01/29 10:02:25;;;;;;;46.35;7.03;;;;;;;8.47;95.32;99413.84;4915773;29;20035;-88
2021/01/29 10:04:58;;;;;;;41.55;6.50;;;;;;;8.63;95.05;99444.84;4927850;29;20514;-73
2021/01/29 10:07:24;;;;;;;48.70;7.10;;;;;;;8.69;94.31;99440.66;4934334;29;20035;-73
2021/01/29 10:10:20;;;;;;;55.03;7.93;;;;;;;8.69;96.07;99443.31;4918059;29;20170;-72
2021/01/29 10:12:52;;;;;;;43.47;6.97;;;;;;;8.64;95.42;99427.03;4929127;29;20066;-72
2021/01/29 10:15:22;;;;;;;47.85;7.63;;;;;;;8.62;95.07;99421.09;4921571;29;20036;-72
2021/01/29 10:18:07;;;;;;;42.65;7.30;;;;;;;8.80;95.19;99439.44;4927014;29;20035;-73
2021/01/29 10:20:34;;;;;;;47.05;6.60;;;;;;;8.81;94.84;99430.47;4926078;28;20118;-73
2021/01/29 10:23:38;;;;;;;54.78;7.95;;;;;;;8.96;95.08;99438.50;4910352;29;20032;-73
2021/01/29 10:26:16;;;;;;;46.03;8.07;;;;;;;8.97;94.78;99448.94;4925973;29;20027;-73
2021/01/29 10:28:51;;;;;;;51.38;7.35;;;;;;;9.05;93.97;99450.72;4931461;29;20028;-83
2021/01/29 10:31:21;;;;;;;39.80;6.43;;;;;;;8.84;93.64;99403.47;4924135;29;20507;-82
2021/01/29 10:33:47;;;;;;;52.40;7.82;;;;;;;9.30;93.75;99434.56;4896351;29;20023;-73
2021/01/29 10:36:29;;;;;;;39.70;6.82;;;;;;;9.00;93.16;99391.91;4915133;29;20027;-72
2021/01/29 10:39:15;;;;;;;41.67;7.50;;;;;;;9.23;92.60;99415.81;4919948;29;20038;-72
2021/01/29 10:41:47;;;;;;;46.65;6.55;;;;;;;9.41;92.29;99442.13;4930160;29;20587;-72
2021/01/29 10:44:13;;;;;;;33.17;6.18;;;;;;;9.43;92.45;99448.09;4930087;29;20769;-72
2021/01/29 10:47:17;;;;;;;44.20;6.57;;;;;;;9.43;92.35;99445.44;4936412;28;20058;-72
2021/01/29 10:50:05;;;;;;;36.10;5.90;;;;;;;9.43;92.17;99450.75;4926805;29;20512;-72
2021/01/29 10:52:34;;;;;;;32.20;5.25;;;;;;;9.31;91.90;99421.09;4921176;29;20783;-72
2021/01/29 10:55:00;;;;;;;43.28;6.85;;;;;;;9.36;90.59;99436.50;4905380;29;20730;-72
2021/01/29 10:57:47;;;;;;;43.30;6.32;;;;;;;9.37;92.08;99446.16;4922163;29;20040;-72
2021/01/29 11:00:15;;;;;;;39.10;6.15;;;;;;;9.38;91.61;99468.28;4917870;29;20024;-72
2021/01/29 11:02:46;;;;;;;34.53;5.78;;;;;;;9.21;91.78;99441.81;4925874;29;20028;-73
2021/01/29 11:05:26;;;;;;;40.38;6.70;;;;;;;9.39;92.34;99468.13;4889457;29;21325;-73
2021/01/29 11:07:53;;;;;;;40.90;6.20;;;;;;;9.23;92.20;99439.78;4920538;29;20056;-73
2021/01/29 11:10:22;;;;;;;37.40;6.63;;;;;;;9.46;91.72;99471.69;4924589;29;20051;-73
2021/01/29 11:13:05;;;;;;;32.45;5.32;;;;;;;9.39;90.44;99465.44;4920038;29;20082;-72
2021/01/29 11:15:41;;;;;;;40.75;6.55;;;;;;;9.11;92.42;99438.53;4919471;28;20107;-72
2021/01/29 11:18:23;;;;;;;37.63;6.35;;;;;;;8.88;91.51;99384.34;4927096;29;20086;-73
2021/01/29 11:20:48;;;;;;;37.47;6.43;;;;;;;9.28;90.76;99479.19;4896982;29;20028;-72
2021/01/29 11:23:30;;;;;;;36.15;6.57;;;;;;;9.27;91.20;99481.00;4912952;29;20042;-73
2021/01/29 11:25:57;;;;;;;46.13;6.70;;;;;;;9.01;92.10;99452.91;4911622;29;20114;-73
2021/01/29 11:28:41;;;;;;;37.97;6.53;;;;;;;9.04;91.83;99457.88;4918808;29;20086;-72
2021/01/29 11:31:37;;;;;;;40.88;6.80;;;;;;;9.13;91.34;99476.44;4922211;29;20046;-73
2021/01/29 11:34:03;;;;;;;43.67;6.18;;;;;;;9.23;91.27;99495.66;4919779;29;20039;-80
2021/01/29 11:36:42;;;;;;;37.50;6.10;;;;;;;9.02;90.99;99464.41;4898720;29;20047;-81
2021/01/29 11:39:22;;;;;;;37.47;5.90;;;;;;;9.10;92.36;99490.94;4931480;28;20035;-81
2021/01/29 11:42:14;;;;;;;39.72;5.38;;;;;;;9.03;92.35;99490.81;4914149;29;20032;-84
2021/01/29 11:45:05;;;;;;;32.72;5.60;;;;;;;9.04;93.84;99494.31;4918004;29;20126;-82
2021/01/29 11:47:49;;;;;;;31.50;4.90;;;;;;;8.99;93.60;99494.03;4897015;29;20020;-80
2021/01/29 11:50:36;;;;;;;31.92;5.38;;;;;;;8.98;93.47;99487.03;4921213;29;20028;-81
2021/01/29 11:53:12;;;;;;;32.08;5.97;;;;;;;8.98;93.79;99495.84;4921678;29;20035;-73
2021/01/29 11:55:42;;;;;;;30.83;5.45;;;;;;;9.02;93.77;99502.47;4923565;29;20038;-73
2021/01/29 11:58:24;;;;;;;32.40;5.97;;;;;;;8.95;94.58;99498.88;4916806;29;20039;-73
2021/01/29 12:00:53;;;;;;;29.45;5.25;;;;;;;8.94;94.17;99501.69;4919670;29;20074;-77
2021/01/29 12:03:41;;;;;;;32.05;5.35;;;;;;;8.88;94.83;99501.41;4908529;29;20598;-72
2021/01/29 12:06:18;;;;;;;39.92;6.05;;;;;;;8.88;95.13;99503.22;4922196;29;20043;-73
2021/01/29 12:09:02;;;;;;;37.10;5.60;;;;;;;8.90;95.34;99493.22;4907710;29;20056;-73
2021/01/29 12:11:35;;;;;;;39.97;5.50;;;;;;;8.82;95.43;99488.78;4916940;29;20124;-73